Time;durP1;ratioP1;P1;durP2;ratioP2;P2;SDS_P1;SDS_P2;PMS_P1;PMS_P2;Temp;Humidity;BMP_temperature;BMP_pressure;BME280_temperature;BME280_humidity;BME280_pressure;Samples;Min_cycle;Max_cycle;Signal;HPM_P1;HPM_P2
2022/10/14 00:00:32;;;;;;;75.25;23.70;;;14.00;99.90;;;;;;5035264;28;20115;-70
2022/10/14 00:02:58;;;;;;;39.58;22.80;;;13.90;99.90;;;;;;5042146;28;20017;-71
2022/10/14 00:05:23;;;;;;;47.78;25.75;;;13.90;99.90;;;;;;5054961;28;20116;-71
2022/10/14 00:07:49;;;;;;;40.28;25.00;;;14.00;99.90;;;;;;5047752;28;20035;-70
2022/10/14 00:10:15;;;;;;;41.45;24.20;;;14.00;99.90;;;;;;5034151;28;20026;-70
2022/10/14 00:12:40;;;;;;;41.58;23.85;;;14.00;99.90;;;;;;5046161;28;20029;-71
2022/10/14 00:15:07;;;;;;;62.05;23.95;;;14.00;99.90;;;;;;5048299;28;20492;-71
2022/10/14 00:17:32;;;;;;;37.33;23.05;;;14.00;99.80;;;;;;5051998;28;20060;-71
2022/10/14 00:19:59;;;;;;;191.10;24.73;;;14.00;99.80;;;;;;5048244;28;20029;-71
2022/10/14 00:22:25;;;;;;;53.10;22.52;;;14.00;99.80;;;;;;5039525;28;20044;-71
2022/10/14 00:24:53;;;;;;;36.08;21.67;;;14.00;99.70;;;;;;5048808;28;20021;-71
2022/10/14 00:27:18;;;;;;;36.60;22.30;;;14.00;99.70;;;;;;5051123;28;20110;-71
2022/10/14 00:29:44;;;;;;;32.90;20.30;;;14.00;99.70;;;;;;5047552;28;20021;-71
2022/10/14 00:32:10;;;;;;;46.22;21.02;;;14.00;99.70;;;;;;5047815;28;20025;-71
2022/10/14 00:34:36;;;;;;;50.63;20.65;;;14.10;99.80;;;;;;5040064;28;20036;-71
2022/10/14 00:37:01;;;;;;;33.97;20.50;;;14.10;99.70;;;;;;5040378;28;20116;-71
2022/10/14 00:39:33;;;;;;;56.88;20.23;;;14.00;99.70;;;;;;5038615;28;20492;-70
2022/10/14 00:41:59;;;;;;;42.03;18.85;;;14.00;99.70;;;;;;5039917;28;20045;-71
2022/10/14 00:44:24;;;;;;;52.10;20.17;;;14.00;99.60;;;;;;5047148;28;20021;-71
2022/10/14 00:46:54;;;;;;;36.33;20.85;;;14.10;99.60;;;;;;5048811;28;20032;-71
2022/10/14 00:49:30;;;;;;;40.42;19.45;;;14.00;99.80;;;;;;5050523;28;20032;-71
2022/10/14 00:52:00;;;;;;;176.15;20.27;;;14.00;99.50;;;;;;5032747;28;20389;-71
2022/10/14 00:54:36;;;;;;;118.97;19.52;;;14.00;99.50;;;;;;5053409;28;20029;-71
2022/10/14 00:57:03;;;;;;;83.35;20.38;;;14.10;99.40;;;;;;5037544;28;20397;-71
2022/10/14 00:59:29;;;;;;;50.83;19.50;;;14.00;99.40;;;;;;5055502;28;20076;-72
2022/10/14 01:01:55;;;;;;;242.63;22.30;;;14.00;99.40;;;;;;5062760;28;20037;-70
2022/10/14 01:04:21;;;;;;;205.48;21.05;;;14.00;99.40;;;;;;5041584;28;20025;-71
2022/10/14 01:07:16;;;;;;;42.13;20.88;;;14.00;99.50;;;;;;5046117;28;20021;-71
2022/10/14 01:10:05;;;;;;;85.78;22.65;;;14.00;99.50;;;;;;5038947;28;20032;-71
2022/10/14 01:13:03;;;;;;;47.45;20.02;;;13.90;99.40;;;;;;5038615;28;20025;-71
2022/10/14 01:15:50;;;;;;;102.30;20.45;;;14.00;99.60;;;;;;5040686;28;20033;-71
2022/10/14 01:18:39;;;;;;;32.22;18.77;;;13.90;99.60;;;;;;5046370;28;20017;-71
2022/10/14 01:21:23;;;;;;;52.90;19.85;;;13.90;99.60;;;;;;5050396;28;20045;-70
2022/10/14 01:24:28;;;;;;;34.40;19.40;;;13.90;99.60;;;;;;5050886;28;20021;-72
2022/10/14 01:27:31;;;;;;;53.25;18.05;;;14.00;99.60;;;;;;5039154;28;20071;-70
2022/10/14 01:30:10;;;;;;;29.92;17.40;;;14.00;99.60;;;;;;5040346;28;20534;-70
2022/10/14 01:32:54;;;;;;;99.55;18.25;;;13.90;99.50;;;;;;5042815;28;20496;-70
2022/10/14 01:35:44;;;;;;;54.83;18.35;;;13.90;99.50;;;;;;5044137;28;20036;-70
2022/10/14 01:38:35;;;;;;;32.10;17.35;;;13.90;99.50;;;;;;5046809;28;20032;-71
2022/10/14 01:41:12;;;;;;;55.90;17.85;;;13.90;99.50;;;;;;5042935;28;20048;-72
2022/10/14 01:43:41;;;;;;;110.63;21.25;;;13.90;99.50;;;;;;5047586;28;20066;-71
2022/10/14 01:46:09;;;;;;;147.25;21.45;;;13.90;99.50;;;;;;5050400;28;20032;-72
2022/10/14 01:48:39;;;;;;;41.55;20.05;;;13.70;99.60;;;;;;5030071;28;20108;-70
2022/10/14 01:51:14;;;;;;;32.70;18.52;;;13.70;99.80;;;;;;5043620;28;20029;-71
2022/10/14 01:53:44;;;;;;;32.80;18.17;;;13.70;99.80;;;;;;5035007;28;20033;-70
2022/10/14 01:56:12;;;;;;;107.57;20.98;;;13.70;99.80;;;;;;5035866;28;20033;-70
2022/10/14 01:58:39;;;;;;;45.67;21.58;;;13.70;99.80;;;;;;5046344;28;20029;-68
2022/10/14 02:01:07;;;;;;;115.90;23.05;;;13.70;99.90;;;;;;5043170;28;20384;-69
2022/10/14 02:03:46;;;;;;;37.72;20.30;;;13.70;99.90;;;;;;5044960;28;20469;-70
2022/10/14 02:06:29;;;;;;;174.85;22.17;;;13.70;99.90;;;;;;5050184;28;20021;-70
2022/10/14 02:09:27;;;;;;;156.85;25.20;;;13.70;99.80;;;;;;5034734;28;20026;-69
2022/10/14 02:12:14;;;;;;;45.70;20.92;;;13.50;99.90;;;;;;5033926;28;20060;-70
2022/10/14 02:14:51;;;;;;;67.80;21.90;;;13.40;99.90;;;;;;5048724;28;20032;-69
2022/10/14 02:17:51;;;;;;;55.00;21.20;;;13.40;99.90;;;;;;5042836;28;20025;-69
2022/10/14 02:20:39;;;;;;;44.05;21.25;;;13.40;99.90;;;;;;5045221;28;20033;-69
2022/10/14 02:23:15;;;;;;;156.32;27.33;;;13.50;99.90;;;;;;5037342;28;20040;-69
2022/10/14 02:25:45;;;;;;;139.52;26.17;;;13.60;99.90;;;;;;5032015;28;20565;-70
2022/10/14 02:28:16;;;;;;;184.55;27.75;;;13.50;99.90;;;;;;5037823;28;20098;-71
2022/10/14 02:30:50;;;;;;;68.07;27.55;;;13.40;99.90;;;;;;5033976;28;20436;-70
2022/10/14 02:33:19;;;;;;;80.88;25.73;;;13.40;99.90;;;;;;5037371;28;20124;-70
2022/10/14 02:35:47;;;;;;;72.15;25.35;;;13.40;99.90;;;;;;5050799;28;20032;-70
2022/10/14 02:38:15;;;;;;;70.00;23.40;;;13.40;99.90;;;;;;5048036;28;20795;-71
2022/10/14 02:40:46;;;;;;;96.43;24.23;;;13.40;99.90;;;;;;5047660;28;20033;-71
2022/10/14 02:43:12;;;;;;;46.65;22.60;;;13.50;99.90;;;;;;5040642;28;20346;-71
2022/10/14 02:45:39;;;;;;;142.10;25.23;;;13.50;99.90;;;;;;5037017;28;20417;-71
2022/10/14 02:48:06;;;;;;;60.67;25.92;;;13.60;99.90;;;;;;5042688;28;20056;-71
2022/10/14 02:50:32;;;;;;;49.10;24.40;;;13.60;99.90;;;;;;5033812;28;20230;-71
2022/10/14 02:52:57;;;;;;;60.45;25.40;;;13.50;99.90;;;;;;5046005;28;20067;-71
2022/10/14 02:55:23;;;;;;;43.28;23.70;;;13.50;99.90;;;;;;5057685;28;20028;-66
2022/10/14 02:57:49;;;;;;;46.95;25.20;;;13.50;99.90;;;;;;5049413;28;20021;-69
2022/10/14 03:00:15;;;;;;;51.38;26.67;;;13.50;99.90;;;;;;5036563;28;20443;-70
2022/10/14 03:02:40;;;;;;;58.03;30.63;;;13.60;99.90;;;;;;5039480;28;20112;-70
2022/10/14 03:05:06;;;;;;;58.92;30.15;;;13.60;99.90;;;;;;5042251;28;20021;-70
2022/10/14 03:07:32;;;;;;;59.90;30.27;;;13.50;99.90;;;;;;5044174;28;20034;-70
2022/10/14 03:09:57;;;;;;;58.58;28.98;;;13.50;99.90;;;;;;5033524;28;20366;-70
2022/10/14 03:12:23;;;;;;;61.50;30.00;;;13.40;99.90;;;;;;5037163;28;20017;-70
2022/10/14 03:14:52;;;;;;;55.67;28.42;;;13.40;99.90;;;;;;5022369;28;20033;-70
2022/10/14 03:17:17;;;;;;;54.67;28.38;;;13.40;99.90;;;;;;5044372;28;20021;-70
2022/10/14 03:19:43;;;;;;;60.63;29.67;;;13.40;99.90;;;;;;5051777;28;20630;-70
2022/10/14 03:22:08;;;;;;;91.30;30.90;;;13.50;99.90;;;;;;5050726;28;20069;-70
2022/10/14 03:24:34;;;;;;;71.22;31.77;;;13.50;99.90;;;;;;5042864;28;20029;-71
2022/10/14 03:26:59;;;;;;;81.60;32.97;;;13.50;99.90;;;;;;5040562;28;20044;-69
2022/10/14 03:29:25;;;;;;;89.38;33.10;;;13.50;99.90;;;;;;5044732;28;20033;-70
2022/10/14 03:31:51;;;;;;;66.63;30.83;;;13.40;99.90;;;;;;5050770;28;20500;-70
2022/10/14 03:34:16;;;;;;;66.00;29.92;;;13.30;99.90;;;;;;5045052;28;20056;-70
2022/10/14 03:36:43;;;;;;;80.47;29.70;;;13.30;99.90;;;;;;5053174;28;20053;-70
2022/10/14 03:39:10;;;;;;;70.20;30.25;;;13.40;99.90;;;;;;5040115;28;20034;-71
2022/10/14 03:41:35;;;;;;;62.35;29.30;;;13.40;99.90;;;;;;5035754;28;20125;-70
2022/10/14 03:44:01;;;;;;;70.95;30.20;;;13.50;99.90;;;;;;5048276;28;20116;-70
2022/10/14 03:46:26;;;;;;;96.38;30.92;;;13.50;99.90;;;;;;5053007;28;20025;-70
2022/10/14 03:48:52;;;;;;;78.90;28.67;;;13.50;99.90;;;;;;5039128;28;20025;-70
2022/10/14 03:51:18;;;;;;;63.40;28.50;;;13.50;99.90;;;;;;5039453;28;20021;-70
2022/10/14 03:53:43;;;;;;;65.70;29.40;;;13.50;99.90;;;;;;5057052;28;20070;-69
2022/10/14 03:56:09;;;;;;;59.80;30.70;;;13.60;99.90;;;;;;5036493;28;20033;-70
2022/10/14 03:58:35;;;;;;;78.53;31.45;;;13.60;99.90;;;;;;5045967;28;20401;-68
2022/10/14 04:01:00;;;;;;;78.63;31.10;;;13.60;99.90;;;;;;5050744;28;20057;-70
2022/10/14 04:03:26;;;;;;;67.70;31.05;;;13.50;99.90;;;;;;5041308;28;20536;-70
2022/10/14 04:05:51;;;;;;;68.40;32.53;;;13.50;99.90;;;;;;5046243;28;20025;-70
2022/10/14 04:08:17;;;;;;;67.82;30.65;;;13.40;99.90;;;;;;5044627;28;20480;-70
2022/10/14 04:10:43;;;;;;;60.78;29.45;;;13.50;99.90;;;;;;5047568;28;20047;-71
2022/10/14 04:13:08;;;;;;;61.58;30.88;;;13.50;99.90;;;;;;5045769;28;20029;-69
2022/10/14 04:15:35;;;;;;;74.57;33.20;;;13.60;99.90;;;;;;5044709;28;20453;-69
2022/10/14 04:18:01;;;;;;;69.05;33.08;;;13.60;99.90;;;;;;5044687;28;20029;-70
2022/10/14 04:20:27;;;;;;;73.10;35.22;;;13.50;99.90;;;;;;5045603;28;20056;-70
2022/10/14 04:22:52;;;;;;;68.57;32.38;;;13.50;99.90;;;;;;5043173;28;20021;-70
2022/10/14 04:25:18;;;;;;;67.15;33.35;;;13.40;99.90;;;;;;5043092;28;20028;-70
2022/10/14 04:27:43;;;;;;;68.45;32.33;;;13.50;99.90;;;;;;5043784;28;20057;-70
2022/10/14 04:30:10;;;;;;;62.50;32.38;;;13.50;99.90;;;;;;5049772;28;20036;-70
2022/10/14 04:32:35;;;;;;;81.35;34.65;;;13.50;99.90;;;;;;5041610;28;20558;-70
2022/10/14 04:35:01;;;;;;;72.07;33.20;;;13.50;99.90;;;;;;5052612;28;20025;-70
2022/10/14 04:37:28;;;;;;;65.05;31.77;;;13.50;99.90;;;;;;5043877;28;20484;-69
2022/10/14 04:39:53;;;;;;;75.82;32.67;;;13.50;99.90;;;;;;5051556;28;20103;-71
2022/10/14 04:42:19;;;;;;;67.20;31.95;;;13.60;99.90;;;;;;5034844;28;20065;-69
2022/10/14 04:44:44;;;;;;;74.80;33.80;;;13.60;99.90;;;;;;5049014;28;20511;-70
2022/10/14 04:47:10;;;;;;;69.63;32.78;;;13.60;99.90;;;;;;5043551;28;20025;-70
2022/10/14 04:49:36;;;;;;;62.28;30.70;;;13.50;99.90;;;;;;5059827;28;20036;-67
2022/10/14 04:52:01;;;;;;;72.20;31.10;;;13.60;99.90;;;;;;5052376;28;20021;-69
2022/10/14 04:54:27;;;;;;;69.32;34.03;;;13.60;99.90;;;;;;5049700;28;20026;-70
2022/10/14 04:56:52;;;;;;;60.53;29.35;;;13.50;99.90;;;;;;5045028;28;20032;-69
2022/10/14 04:59:18;;;;;;;77.68;34.13;;;13.50;99.90;;;;;;5048934;28;20112;-71
2022/10/14 05:01:44;;;;;;;75.90;35.28;;;13.50;99.90;;;;;;5047186;28;20037;-71
2022/10/14 05:04:09;;;;;;;72.72;34.42;;;13.60;99.90;;;;;;5050526;28;20472;-70
2022/10/14 05:06:36;;;;;;;64.93;32.13;;;13.50;99.90;;;;;;5041339;28;20477;-70
2022/10/14 05:09:02;;;;;;;68.97;33.35;;;13.50;99.90;;;;;;5045025;28;20049;-71
2022/10/14 05:11:28;;;;;;;74.20;35.75;;;13.50;99.90;;;;;;5034116;28;20029;-71
2022/10/14 05:13:53;;;;;;;71.22;34.65;;;13.50;99.90;;;;;;5033946;28;20052;-72
2022/10/14 05:16:19;;;;;;;63.70;32.40;;;13.50;99.90;;;;;;5034286;28;20029;-70
2022/10/14 05:18:44;;;;;;;72.97;36.42;;;13.50;99.90;;;;;;5033944;28;20346;-70
2022/10/14 05:21:10;;;;;;;75.15;34.67;;;13.50;99.90;;;;;;5033942;28;20026;-70
2022/10/14 05:23:36;;;;;;;79.68;35.65;;;13.50;99.90;;;;;;5034152;28;20039;-70
2022/10/14 05:26:01;;;;;;;75.25;36.58;;;13.50;99.90;;;;;;5034130;28;20171;-70
2022/10/14 05:28:27;;;;;;;78.53;36.40;;;13.50;99.90;;;;;;5033773;28;20076;-70
2022/10/14 05:30:52;;;;;;;71.68;34.65;;;13.40;99.90;;;;;;5033606;28;20104;-70
2022/10/14 05:33:18;;;;;;;74.05;35.65;;;13.40;99.90;;;;;;5033616;28;20500;-71
2022/10/14 05:35:43;;;;;;;68.05;34.40;;;13.50;99.90;;;;;;5034028;28;20022;-70
2022/10/14 05:38:11;;;;;;;75.20;35.53;;;13.50;99.90;;;;;;5038529;28;20110;-70
2022/10/14 05:40:36;;;;;;;83.82;37.60;;;13.60;99.90;;;;;;5041502;28;20431;-71
2022/10/14 05:43:02;;;;;;;75.85;36.67;;;13.60;99.90;;;;;;5045920;28;20028;-70
2022/10/14 05:45:28;;;;;;;80.47;37.25;;;13.60;99.90;;;;;;5038684;28;20397;-75
2022/10/14 05:47:54;;;;;;;85.68;39.55;;;13.60;99.90;;;;;;5052287;28;20089;-75
2022/10/14 05:50:20;;;;;;;76.93;37.13;;;13.60;99.90;;;;;;5061440;28;20021;-76
2022/10/14 05:52:46;;;;;;;78.13;36.65;;;13.50;99.90;;;;;;5038841;28;20040;-76
2022/10/14 05:55:12;;;;;;;72.28;36.35;;;13.60;99.90;;;;;;5040224;28;20026;-75
2022/10/14 05:57:37;;;;;;;79.97;39.03;;;13.50;99.90;;;;;;5038576;28;20070;-75
2022/10/14 06:00:05;;;;;;;71.38;35.55;;;13.60;99.90;;;;;;5044239;28;20527;-76
2022/10/14 06:02:31;;;;;;;73.97;36.42;;;13.60;99.90;;;;;;5033206;28;20045;-75
2022/10/14 06:04:57;;;;;;;72.85;35.88;;;13.70;99.90;;;;;;5033572;28;20028;-74
2022/10/14 06:07:23;;;;;;;75.57;37.83;;;13.70;99.90;;;;;;5033599;28;20030;-73
2022/10/14 06:09:48;;;;;;;70.72;36.38;;;13.70;99.90;;;;;;5033392;28;20029;-74
2022/10/14 06:12:14;;;;;;;68.60;35.33;;;13.70;99.90;;;;;;5033679;28;20033;-74
2022/10/14 06:14:40;;;;;;;73.13;35.13;;;13.70;99.90;;;;;;5033246;28;20424;-73
2022/10/14 06:17:06;;;;;;;69.55;35.50;;;13.70;99.90;;;;;;5033331;28;20032;-73
2022/10/14 06:19:32;;;;;;;62.22;34.15;;;13.70;99.90;;;;;;5033562;28;20029;-73
2022/10/14 06:21:58;;;;;;;66.95;35.50;;;13.70;99.90;;;;;;5033171;28;20044;-74
2022/10/14 06:24:23;;;;;;;64.43;35.47;;;13.70;99.90;;;;;;5033245;28;20029;-75
2022/10/14 06:26:49;;;;;;;51.70;29.20;;;13.70;99.90;;;;;;5033046;28;20052;-77
2022/10/14 06:29:16;;;;;;;47.15;25.65;;;13.70;99.90;;;;;;5033373;28;20053;-76
2022/10/14 06:31:41;;;;;;;52.35;28.60;;;13.80;99.90;;;;;;5039968;28;20028;-76
2022/10/14 06:34:07;;;;;;;53.05;31.05;;;13.80;99.90;;;;;;5052963;28;20021;-75
2022/10/14 06:36:33;;;;;;;49.15;27.85;;;13.90;99.90;;;;;;5053758;28;20069;-76
2022/10/14 06:38:59;;;;;;;51.20;30.48;;;14.00;99.90;;;;;;5053374;28;20534;-77
2022/10/14 06:41:25;;;;;;;51.47;30.38;;;14.00;99.90;;;;;;5053502;28;20040;-75
2022/10/14 06:43:51;;;;;;;41.55;26.45;;;14.00;99.90;;;;;;5061509;28;20384;-73
2022/10/14 06:46:17;;;;;;;41.70;28.63;;;14.00;99.90;;;;;;5066378;28;20068;-76
2022/10/14 06:48:42;;;;;;;43.35;28.23;;;14.00;99.90;;;;;;5058864;28;20151;-77
2022/10/14 06:51:08;;;;;;;41.33;27.20;;;14.00;99.90;;;;;;5055951;28;20021;-76
2022/10/14 06:53:34;;;;;;;38.15;26.55;;;14.10;99.90;;;;;;5042717;28;20029;-77
2022/10/14 06:56:02;;;;;;;34.90;24.15;;;14.10;99.90;;;;;;5037077;28;20405;-71
2022/10/14 06:58:29;;;;;;;37.15;25.73;;;14.10;99.90;;;;;;5036200;28;20508;-72
2022/10/14 07:00:54;;;;;;;41.50;25.70;;;14.10;99.90;;;;;;5036409;28;20095;-74
2022/10/14 07:03:20;;;;;;;33.20;24.48;;;14.20;99.90;;;;;;5036460;28;20373;-73
2022/10/14 07:05:46;;;;;;;35.60;26.35;;;14.10;99.90;;;;;;5036588;28;20377;-74
2022/10/14 07:08:12;;;;;;;34.85;25.48;;;14.20;99.90;;;;;;5036885;28;20394;-73
2022/10/14 07:10:37;;;;;;;38.15;25.30;;;14.10;99.90;;;;;;5036184;28;20372;-73
2022/10/14 07:13:03;;;;;;;36.42;25.77;;;14.20;99.90;;;;;;5036299;28;20079;-73
2022/10/14 07:15:28;;;;;;;35.95;25.63;;;14.20;99.90;;;;;;5036695;28;20025;-72
2022/10/14 07:17:54;;;;;;;33.65;25.30;;;14.20;99.90;;;;;;5036076;28;20056;-73
2022/10/14 07:20:19;;;;;;;38.03;25.90;;;14.20;99.90;;;;;;5035056;28;20112;-74
2022/10/14 07:22:45;;;;;;;33.00;23.63;;;14.20;99.90;;;;;;5036389;28;20033;-74
2022/10/14 07:25:10;;;;;;;34.97;24.73;;;14.10;99.90;;;;;;5036166;28;20550;-72
2022/10/14 07:27:36;;;;;;;32.90;24.27;;;14.10;99.90;;;;;;5036014;28;20050;-73
2022/10/14 07:30:04;;;;;;;30.50;22.25;;;14.10;99.90;;;;;;5036391;28;20021;-75
2022/10/14 07:32:30;;;;;;;31.77;23.15;;;14.10;99.90;;;;;;5036226;28;20086;-74
2022/10/14 07:34:55;;;;;;;30.95;22.67;;;14.20;99.90;;;;;;5035997;28;20540;-74
2022/10/14 07:37:21;;;;;;;34.05;23.88;;;14.20;99.90;;;;;;5036045;28;20100;-74
2022/10/14 07:39:47;;;;;;;27.25;20.27;;;14.20;99.90;;;;;;5036348;28;20057;-74
2022/10/14 07:42:12;;;;;;;24.90;19.92;;;14.20;99.90;;;;;;5045404;28;20116;-74
2022/10/14 07:44:38;;;;;;;28.48;21.73;;;14.30;99.90;;;;;;5038130;28;20017;-74
2022/10/14 07:47:04;;;;;;;28.88;20.05;;;14.30;99.90;;;;;;5035616;28;20037;-74
2022/10/14 07:49:30;;;;;;;27.00;20.10;;;14.30;99.90;;;;;;5035585;28;20030;-75
2022/10/14 07:51:56;;;;;;;24.90;18.70;;;14.30;99.90;;;;;;5035672;28;20083;-74
2022/10/14 07:54:24;;;;;;;25.92;19.67;;;14.30;99.90;;;;;;5035549;28;20048;-74
2022/10/14 07:56:50;;;;;;;25.38;19.27;;;14.30;99.90;;;;;;5035871;28;20093;-74
2022/10/14 07:59:18;;;;;;;22.38;17.25;;;14.30;99.90;;;;;;5035869;28;20080;-75
2022/10/14 08:01:46;;;;;;;19.88;14.45;;;14.40;99.90;;;;;;5036460;28;20065;-79
2022/10/14 08:04:11;;;;;;;24.58;17.17;;;14.40;99.90;;;;;;5044649;28;20025;-79
2022/10/14 08:06:37;;;;;;;21.80;15.65;;;14.50;99.90;;;;;;5038704;28;20029;-77
2022/10/14 08:09:04;;;;;;;21.77;16.88;;;14.50;99.90;;;;;;5038927;28;20063;-79
2022/10/14 08:11:30;;;;;;;22.45;17.15;;;14.50;99.90;;;;;;5055575;28;20024;-78
2022/10/14 08:13:57;;;;;;;20.30;16.40;;;14.50;99.90;;;;;;5051370;28;20021;-75
2022/10/14 08:16:25;;;;;;;20.15;15.90;;;14.50;99.90;;;;;;5046645;28;20112;-78
2022/10/14 08:18:52;;;;;;;20.98;14.07;;;14.60;99.90;;;;;;5035266;28;20469;-78
2022/10/14 08:21:21;;;;;;;17.67;14.68;;;14.60;99.90;;;;;;5036787;28;20339;-77
2022/10/14 08:23:47;;;;;;;18.65;15.43;;;14.60;99.90;;;;;;5038611;28;20467;-77
2022/10/14 08:26:27;;;;;;;19.05;14.85;;;14.60;99.90;;;;;;5034814;28;20037;-78
2022/10/14 08:28:54;;;;;;;15.07;12.70;;;14.60;99.90;;;;;;5035246;28;20049;-77
2022/10/14 08:31:20;;;;;;;15.38;11.15;;;14.60;99.90;;;;;;5035041;28;20025;-76
2022/10/14 08:33:46;;;;;;;16.30;12.77;;;14.70;99.90;;;;;;5035218;28;20025;-72
2022/10/14 08:36:12;;;;;;;14.23;12.50;;;14.70;99.90;;;;;;5036310;28;20032;-73
2022/10/14 08:38:38;;;;;;;13.88;12.27;;;14.70;99.90;;;;;;5042378;28;20021;-76
2022/10/14 08:41:12;;;;;;;15.20;12.40;;;14.80;99.90;;;;;;5038268;28;20082;-74
2022/10/14 08:43:56;;;;;;;18.50;12.68;;;14.80;99.90;;;;;;5034995;28;20025;-72
2022/10/14 08:46:29;;;;;;;15.52;12.35;;;14.90;99.90;;;;;;5034336;28;20543;-71
2022/10/14 08:49:13;;;;;;;12.75;11.40;;;14.90;99.90;;;;;;5034845;28;20033;-72
2022/10/14 08:51:42;;;;;;;15.20;11.60;;;14.90;99.90;;;;;;5034203;28;20112;-74
2022/10/14 08:54:14;;;;;;;13.15;11.90;;;14.90;99.90;;;;;;5034343;28;20469;-72
2022/10/14 08:56:41;;;;;;;14.45;11.27;;;15.00;99.90;;;;;;5034022;28;20034;-73
2022/10/14 08:59:13;;;;;;;14.30;12.88;;;15.00;99.90;;;;;;5039018;28;20020;-73
2022/10/14 09:01:59;;;;;;;14.77;12.50;;;15.00;99.90;;;;;;5039803;28;20064;-73
2022/10/14 09:04:25;;;;;;;14.13;12.50;;;15.00;99.90;;;;;;5039422;28;20029;-72
2022/10/14 09:06:53;;;;;;;12.95;11.63;;;15.10;99.90;;;;;;5042849;28;20031;-72
2022/10/14 09:09:37;;;;;;;11.07;9.82;;;15.10;99.90;;;;;;5043818;28;20022;-72
2022/10/14 09:12:09;;;;;;;14.27;12.27;;;15.10;99.90;;;;;;5014452;28;20026;-74
2022/10/14 09:14:38;;;;;;;12.35;10.23;;;15.10;99.90;;;;;;5021395;28;20480;-75
2022/10/14 09:17:30;;;;;;;14.45;11.75;;;15.20;99.90;;;;;;5034145;28;20393;-75
2022/10/14 09:20:26;;;;;;;14.20;10.35;;;15.20;99.90;;;;;;5040071;28;20047;-74
2022/10/14 09:23:03;;;;;;;11.85;9.98;;;15.20;99.90;;;;;;5041802;28;20033;-75
2022/10/14 09:25:33;;;;;;;11.27;10.05;;;15.10;99.90;;;;;;5030776;28;20124;-75
2022/10/14 09:27:59;;;;;;;11.93;10.75;;;15.10;99.90;;;;;;5038925;28;20077;-74
2022/10/14 09:30:28;;;;;;;9.95;9.00;;;15.10;99.90;;;;;;5048591;28;20025;-75
2022/10/14 09:32:54;;;;;;;11.77;10.57;;;15.10;99.90;;;;;;5045083;28;20113;-75
2022/10/14 09:35:28;;;;;;;13.27;11.02;;;15.20;99.90;;;;;;5041986;28;20025;-73
2022/10/14 09:37:56;;;;;;;12.30;10.65;;;15.20;99.90;;;;;;5033314;28;20032;-75
2022/10/14 09:40:33;;;;;;;10.88;9.57;;;15.20;99.90;;;;;;5039805;28;20021;-74
2022/10/14 09:43:08;;;;;;;11.52;10.43;;;15.20;99.90;;;;;;5040933;28;20041;-74
2022/10/14 09:45:57;;;;;;;10.68;9.63;;;15.20;99.90;;;;;;5037484;28;20071;-72
2022/10/14 09:48:38;;;;;;;10.43;9.32;;;15.30;99.90;;;;;;5040009;28;20040;-75
2022/10/14 09:51:17;;;;;;;8.30;7.50;;;15.30;99.90;;;;;;5047739;28;20029;-74
2022/10/14 09:53:47;;;;;;;11.27;9.68;;;15.30;99.90;;;;;;5038710;28;20020;-72
2022/10/14 09:56:14;;;;;;;11.00;9.90;;;15.30;99.90;;;;;;5032887;28;20025;-73
2022/10/14 09:58:42;;;;;;;10.45;9.48;;;15.40;99.90;;;;;;5036433;28;20055;-73
2022/10/14 10:01:26;;;;;;;9.10;8.20;;;15.40;99.90;;;;;;5051293;28;20060;-74
2022/10/14 10:03:54;;;;;;;9.30;8.40;;;15.40;99.90;;;;;;5041722;28;20029;-74
2022/10/14 10:06:24;;;;;;;10.10;9.10;;;15.40;99.90;;;;;;5040112;28;20117;-73
2022/10/14 10:08:57;;;;;;;10.88;9.77;;;15.40;99.90;;;;;;5045952;28;20017;-73
2022/10/14 10:11:27;;;;;;;;;;;15.50;99.90;;;;;;5033737;28;20354;-74
2022/10/14 10:13:53;;;;;;;8.50;7.40;;;15.50;99.90;;;;;;5036986;28;19999;-72
2022/10/14 10:16:30;;;;;;;8.32;7.63;;;15.50;99.90;;;;;;5038150;28;20022;-71
2022/10/14 10:19:00;;;;;;;9.43;8.50;;;15.60;99.90;;;;;;5035908;28;20025;-70
2022/10/14 10:21:31;;;;;;;10.02;8.85;;;15.60;99.90;;;;;;5050335;28;20052;-71
2022/10/14 10:24:02;;;;;;;7.00;5.70;;;15.60;99.90;;;;;;5034127;28;20030;-74
2022/10/14 10:26:32;;;;;;;9.73;7.88;;;15.60;99.90;;;;;;5038505;28;20458;-73
2022/10/14 10:29:02;;;;;;;11.18;9.25;;;15.60;99.90;;;;;;5048987;28;20051;-71
2022/10/14 10:31:46;;;;;;;11.00;8.93;;;15.60;99.90;;;;;;5047306;28;20059;-70
2022/10/14 10:34:29;;;;;;;9.85;8.85;;;15.60;99.90;;;;;;5043808;28;20068;-72
2022/10/14 10:37:03;;;;;;;8.57;7.80;;;15.60;99.90;;;;;;5048879;28;20036;-71
2022/10/14 10:39:36;;;;;;;9.02;7.70;;;15.60;99.90;;;;;;5035180;28;20032;-71
2022/10/14 10:42:20;;;;;;;9.75;8.77;;;15.70;99.90;;;;;;5040142;28;20439;-71
2022/10/14 10:45:29;;;;;;;8.63;7.82;;;15.70;99.90;;;;;;5045208;28;20017;-72
2022/10/14 10:48:06;;;;;;;7.88;7.18;;;15.70;99.90;;;;;;5021700;28;20392;-72
2022/10/14 10:50:56;;;;;;;8.18;7.38;;;15.70;99.90;;;;;;5030530;28;20033;-72
2022/10/14 10:53:54;;;;;;;9.55;8.65;;;15.80;99.90;;;;;;5029450;28;20091;-71
2022/10/14 10:56:38;;;;;;;9.48;8.57;;;15.80;99.90;;;;;;5037945;28;20025;-72
2022/10/14 10:59:16;;;;;;;11.48;9.27;;;15.80;99.90;;;;;;5053581;28;20480;-71
2022/10/14 11:01:48;;;;;;;9.20;7.50;;;15.80;99.90;;;;;;5052803;28;20072;-70
2022/10/14 11:04:32;;;;;;;9.75;8.73;;;15.90;99.90;;;;;;5040063;28;20029;-72
2022/10/14 11:13:31;;;;;;;8.88;7.97;;;15.90;99.90;;;;;;5036525;28;20146;-72
2022/10/14 11:16:22;;;;;;;14.02;8.70;;;16.00;99.90;;;;;;5036343;28;20068;-73
2022/10/14 11:19:32;;;;;;;9.23;8.32;;;16.00;99.90;;;;;;5036628;28;20147;-74
2022/10/14 11:22:18;;;;;;;9.07;7.63;;;16.00;99.90;;;;;;5035934;28;20045;-73
2022/10/14 11:25:31;;;;;;;9.70;7.53;;;16.00;99.90;;;;;;5036411;28;20029;-73
2022/10/14 11:28:19;;;;;;;12.25;8.13;;;16.00;99.90;;;;;;4995466;28;20157;-70
2022/10/14 11:31:02;;;;;;;9.95;8.35;;;16.00;99.90;;;;;;5020531;28;20119;-72
2022/10/14 11:33:44;;;;;;;9.60;7.50;;;16.00;99.90;;;;;;5016612;28;20018;-75
2022/10/14 11:36:22;;;;;;;9.13;7.85;;;16.00;99.90;;;;;;5014535;28;20037;-74
2022/10/14 11:39:19;;;;;;;8.88;7.75;;;16.00;99.90;;;;;;5027355;28;20056;-73
2022/10/14 11:42:03;;;;;;;8.50;7.30;;;16.00;99.90;;;;;;5045896;28;20477;-74
2022/10/14 11:44:36;;;;;;;8.00;6.80;;;16.00;99.90;;;;;;5048006;28;20032;-74
2022/10/14 11:47:30;;;;;;;9.60;7.63;;;16.00;99.90;;;;;;5037754;28;20091;-75
2022/10/14 11:49:59;;;;;;;12.55;8.05;;;16.00;99.90;;;;;;5034464;28;20027;-73
2022/10/14 11:52:50;;;;;;;9.25;7.78;;;16.00;99.90;;;;;;5044512;28;20037;-73
2022/10/14 11:55:22;;;;;;;8.38;7.10;;;16.00;99.90;;;;;;5041569;28;20041;-72
2022/10/14 11:58:02;;;;;;;7.97;6.72;;;16.00;99.90;;;;;;5044379;28;21489;-73
2022/10/14 12:00:32;;;;;;;10.05;7.65;;;15.90;99.90;;;;;;5034742;28;20044;-71
2022/10/14 12:03:22;;;;;;;13.13;8.30;;;16.00;99.90;;;;;;5042876;28;20049;-73
2022/10/14 12:06:11;;;;;;;9.40;8.40;;;16.00;99.90;;;;;;5044565;28;20029;-73
2022/10/14 12:08:45;;;;;;;7.63;6.05;;;16.00;99.90;;;;;;5042914;28;20554;-72
2022/10/14 12:11:14;;;;;;;8.65;6.30;;;15.90;99.90;;;;;;5039898;28;20025;-73
2022/10/14 12:13:51;;;;;;;6.78;6.13;;;15.90;99.90;;;;;;5042860;28;20481;-72
2022/10/14 12:16:19;;;;;;;6.75;5.55;;;16.00;99.90;;;;;;5041230;28;20068;-73
2022/10/14 12:18:49;;;;;;;9.60;7.28;;;16.00;99.90;;;;;;5046667;28;20108;-73
2022/10/14 12:21:45;;;;;;;8.70;6.97;;;16.00;99.90;;;;;;5034713;28;20037;-73
2022/10/14 12:24:18;;;;;;;6.10;5.50;;;15.90;99.90;;;;;;5037327;28;20025;-71
2022/10/14 12:26:53;;;;;;;7.00;5.68;;;15.90;99.90;;;;;;5059165;28;20403;-74
2022/10/14 12:29:26;;;;;;;7.53;5.65;;;15.90;99.90;;;;;;5044232;28;20037;-74
2022/10/14 12:32:15;;;;;;;5.68;4.88;;;15.90;99.90;;;;;;5040956;28;20486;-72
2022/10/14 12:34:42;;;;;;;6.78;4.90;;;16.00;99.90;;;;;;5040667;28;20032;-71
2022/10/14 12:37:23;;;;;;;8.20;4.15;;;16.00;99.90;;;;;;5052340;28;20031;-75
2022/10/14 12:39:51;;;;;;;4.88;4.38;;;16.00;99.90;;;;;;5048428;28;20394;-74
2022/10/14 12:42:18;;;;;;;4.18;3.60;;;16.00;99.90;;;;;;5038283;28;20057;-74
2022/10/14 12:44:51;;;;;;;5.07;4.60;;;16.00;99.90;;;;;;5035966;28;20029;-73
2022/10/14 12:47:31;;;;;;;5.85;4.70;;;16.00;99.90;;;;;;5050016;28;20052;-75
2022/10/14 12:50:01;;;;;;;9.05;4.80;;;16.10;99.90;;;;;;5048613;28;20035;-74
2022/10/14 12:52:34;;;;;;;4.15;3.80;;;16.10;99.90;;;;;;5046172;28;20025;-75
2022/10/14 12:55:03;;;;;;;6.53;3.70;;;16.20;99.90;;;;;;5034304;28;20057;-74
2022/10/14 12:57:33;;;;;;;5.57;3.78;;;16.20;99.90;;;;;;5042172;28;20106;-74